createdAt,value
2022-09-02T00:01:16.496Z,101556.10
2022-09-02T00:05:07.188Z,101560.06
2022-09-02T00:08:55.015Z,101560.40
2022-09-02T00:12:42.790Z,101559.52
2022-09-02T00:16:30.476Z,101557.30
2022-09-02T00:20:18.239Z,101556.63
2022-09-02T00:24:06.083Z,101554.41
2022-09-02T00:27:53.991Z,101550.98
2022-09-02T00:31:41.934Z,101551.19
2022-09-02T00:35:29.877Z,101552.46
2022-09-02T00:39:17.784Z,101555.95
2022-09-02T00:43:05.434Z,101559.62
2022-09-02T00:46:53.115Z,101551.87
2022-09-02T00:50:40.881Z,101557.38
2022-09-02T00:54:28.870Z,101552.79
2022-09-02T00:58:17.185Z,101552.63
2022-09-02T01:02:05.048Z,101552.66
2022-09-02T01:05:52.940Z,101551.27
2022-09-02T01:09:40.765Z,101553.47
2022-09-02T01:13:28.462Z,101550.43
2022-09-02T01:17:28.077Z,101549.86
2022-09-02T01:21:16.196Z,101548.45
2022-09-02T01:25:04.037Z,101549.77
2022-09-02T01:28:52.006Z,101551.42
2022-09-02T01:32:40.026Z,101551.64
2022-09-02T01:36:07.784Z,101553.23
2022-09-02T01:39:56.427Z,101553.69
2022-09-02T01:43:43.585Z,101553.89
2022-09-02T01:47:31.809Z,101556.70
2022-09-02T01:51:19.612Z,101552.67
2022-09-02T01:54:24.967Z,101550.45
2022-09-02T01:56:53.037Z,101548.90
2022-09-02T01:59:21.016Z,101550.80
2022-09-02T02:01:48.899Z,101549.52
2022-09-02T02:04:18.698Z,101548.41
2022-09-02T02:06:52.488Z,101548.72
2022-09-02T02:09:22.231Z,101544.93
2022-09-02T02:11:51.691Z,101542.48
2022-09-02T02:14:20.151Z,101543.35
2022-09-02T02:16:49.628Z,101549.20
2022-09-02T02:19:17.660Z,101547.27
2022-09-02T02:21:45.868Z,101544.96
2022-09-02T02:24:14.378Z,101545.59
2022-09-02T02:26:42.498Z,101541.42
2022-09-02T02:29:10.945Z,101546.20
2022-09-02T02:31:40.471Z,101547.03
2022-09-02T02:34:10.547Z,101543.83
2022-09-02T02:36:39.877Z,101546.98
2022-09-02T02:39:10.159Z,101551.44
2022-09-02T02:41:40.028Z,101552.02
2022-09-02T02:44:13.021Z,101548.45
2022-09-02T02:46:41.539Z,101547.70
2022-09-02T02:49:09.856Z,101546.75
2022-09-02T02:51:38.607Z,101543.30
2022-09-02T02:54:07.407Z,101549.28
2022-09-02T02:56:35.688Z,101550.13
2022-09-02T02:59:03.952Z,101547.02
2022-09-02T03:01:33.667Z,101546.27
2022-09-02T03:04:01.609Z,101546.65
2022-09-02T03:06:30.033Z,101550.13
2022-09-02T03:08:59.779Z,101551.34
2022-09-02T03:11:28.584Z,101550.73
2022-09-02T03:13:57.690Z,101553.67
2022-09-02T03:16:26.266Z,101552.56
2022-09-02T03:18:54.907Z,101554.64
2022-09-02T03:21:22.906Z,101557.14
2022-09-02T03:23:52.675Z,101556.05
2022-09-02T03:26:23.501Z,101554.46
2022-09-02T03:28:59.633Z,101558.25
2022-09-02T03:31:28.701Z,101557.13
2022-09-02T03:33:56.759Z,101555.37
2022-09-02T03:36:29.694Z,101554.15
2022-09-02T03:38:59.984Z,101555.46
2022-09-02T03:41:29.527Z,101554.88
2022-09-02T03:43:58.918Z,101554.44
2022-09-02T03:46:28.560Z,101554.13
2022-09-02T03:48:56.841Z,101559.14
2022-09-02T03:51:26.123Z,101559.23
2022-09-02T03:53:54.992Z,101556.64
2022-09-02T03:56:25.268Z,101555.42
2022-09-02T03:58:53.534Z,101557.30
2022-09-02T04:01:26.085Z,101561.27
2022-09-02T04:03:57.054Z,101563.80
2022-09-02T04:06:26.228Z,101559.42
2022-09-02T04:09:01.848Z,101561.91
2022-09-02T04:11:30.078Z,101562.33
2022-09-02T04:13:59.053Z,101563.55
2022-09-02T04:16:29.426Z,101564.66
2022-09-02T04:19:02.139Z,101563.50
2022-09-02T04:21:35.386Z,101568.26
2022-09-02T04:24:09.657Z,101567.57
2022-09-02T04:26:45.160Z,101570.95
2022-09-02T04:29:14.886Z,101568.58
2022-09-02T04:31:45.649Z,101564.87
2022-09-02T04:34:13.926Z,101569.51
2022-09-02T04:36:43.455Z,101569.73
2022-09-02T04:39:13.738Z,101573.02
2022-09-02T04:41:42.534Z,101574.98
2022-09-02T04:44:12.125Z,101573.94
2022-09-02T04:46:43.038Z,101574.37
2022-09-02T04:49:15.180Z,101576.42
2022-09-02T04:51:44.109Z,101575.69
2022-09-02T04:54:12.736Z,101579.81
2022-09-02T04:56:47.171Z,101582.21
2022-09-02T04:59:15.982Z,101576.21
2022-09-02T05:01:50.880Z,101576.58
2022-09-02T05:04:22.962Z,101578.73
2022-09-02T05:06:51.644Z,101579.30
2022-09-02T05:09:21.956Z,101576.69
2022-09-02T05:11:57.887Z,101575.14
2022-09-02T05:14:29.549Z,101576.80
2022-09-02T05:17:05.088Z,101579.58
2022-09-02T05:19:37.109Z,101581.45
2022-09-02T05:22:05.773Z,101579.27
2022-09-02T05:24:37.770Z,101580.05
2022-09-02T05:27:10.071Z,101580.51
2022-09-02T05:29:38.704Z,101575.60
2022-09-02T05:32:08.596Z,101577.74
2022-09-02T05:34:42.380Z,101576.73
2022-09-02T05:37:10.744Z,101580.48
2022-09-02T05:39:41.283Z,101583.35
2022-09-02T05:42:10.743Z,101580.47
2022-09-02T05:44:40.049Z,101581.55
2022-09-02T05:47:13.715Z,101586.27
2022-09-02T05:49:47.665Z,101587.60
2022-09-02T05:52:18.739Z,101581.55
2022-09-02T05:54:51.032Z,101580.27
2022-09-02T05:57:21.543Z,101580.76
2022-09-02T06:00:08.467Z,101584.05
2022-09-02T06:02:45.285Z,101585.14
2022-09-02T06:05:45.365Z,101586.77
2022-09-02T06:08:20.623Z,101589.14
2022-09-02T06:10:49.330Z,101587.38
2022-09-02T06:13:23.105Z,101584.98
2022-09-02T06:15:54.391Z,101587.45
2022-09-02T06:18:25.627Z,101590.98
2022-09-02T06:20:55.601Z,101594.60
2022-09-02T06:23:24.940Z,101591.45
2022-09-02T06:25:53.330Z,101593.55
2022-09-02T06:28:22.407Z,101598.86
2022-09-02T06:30:50.513Z,101598.54
2022-09-02T06:33:22.258Z,101600.13
2022-09-02T06:35:50.672Z,101598.08
2022-09-02T06:38:20.559Z,101594.86
2022-09-02T06:40:51.995Z,101596.30
2022-09-02T06:43:25.021Z,101596.44
2022-09-02T06:46:05.381Z,101593.89
2022-09-02T06:48:34.398Z,101591.85
2022-09-02T06:51:02.569Z,101592.98
2022-09-02T06:53:32.154Z,101590.86
2022-09-02T06:56:00.752Z,101593.09
2022-09-02T06:58:29.121Z,101593.66
2022-09-02T07:00:57.861Z,101590.02
2022-09-02T07:03:45.777Z,101593.80
2022-09-02T07:06:14.444Z,101595.58
2022-09-02T07:08:46.370Z,101593.86
2022-09-02T07:11:19.437Z,101594.33
2022-09-02T07:13:48.807Z,101594.70
2022-09-02T07:16:26.970Z,101596.92
2022-09-02T07:18:59.380Z,101596.11
2022-09-02T07:21:29.532Z,101593.26
2022-09-02T07:23:59.711Z,101599.64
2022-09-02T07:26:29.986Z,101602.67
2022-09-02T07:28:58.988Z,101598.75
2022-09-02T07:31:29.420Z,101602.02
2022-09-02T07:33:59.936Z,101599.33
2022-09-02T07:36:29.798Z,101601.61
2022-09-02T07:38:59.005Z,101597.39
2022-09-02T07:41:27.769Z,101595.77
2022-09-02T07:43:59.607Z,101598.38
2022-09-02T07:46:32.178Z,101598.90
2022-09-02T07:49:01.811Z,101601.78
2022-09-02T07:51:31.540Z,101599.27
2022-09-02T07:54:02.044Z,101600.43
2022-09-02T07:56:30.357Z,101598.93
2022-09-02T07:58:58.697Z,101602.38
2022-09-02T08:01:27.411Z,101598.05
2022-09-02T08:03:56.519Z,101598.36
2022-09-02T08:06:34.947Z,101603.70
2022-09-02T08:09:12.113Z,101596.37
2022-09-02T08:11:44.492Z,101598.80
2022-09-02T08:14:19.052Z,101600.33
2022-09-02T08:16:51.309Z,101588.22
2022-09-02T08:19:26.144Z,101592.39
2022-09-02T08:22:06.568Z,101593.81
2022-09-02T08:24:36.442Z,101593.95
2022-09-02T08:27:06.007Z,101595.75
2022-09-02T08:29:35.681Z,101595.84
2022-09-02T08:32:08.529Z,101591.29
2022-09-02T08:36:11.925Z,101592.73
2022-09-02T08:39:53.945Z,101596.16
2022-09-02T08:43:46.699Z,101595.45
2022-09-02T08:46:18.417Z,101592.68
2022-09-02T08:48:57.471Z,101595.65
2022-09-02T08:51:41.421Z,101588.97
2022-09-02T08:54:46.578Z,101586.31
2022-09-02T08:57:15.357Z,101586.42
2022-09-02T08:59:45.451Z,101584.25
2022-09-02T09:02:32.876Z,101584.39
2022-09-02T09:05:28.540Z,101579.27
2022-09-02T09:08:16.196Z,101581.27
2022-09-02T09:11:01.767Z,101577.34
2022-09-02T09:14:00.195Z,101578.96
2022-09-02T09:16:58.555Z,101572.38
2022-09-02T09:19:35.656Z,101574.42
2022-09-02T09:22:05.320Z,101572.43
2022-09-02T09:24:42.490Z,101572.95
2022-09-02T09:27:16.713Z,101574.60
2022-09-02T09:29:45.689Z,101570.64
2022-09-02T09:32:23.482Z,101561.76
2022-09-02T09:34:51.863Z,101561.66
2022-09-02T09:37:36.463Z,101565.41
2022-09-02T09:40:26.189Z,101564.45
2022-09-02T09:43:03.337Z,101564.80
2022-09-02T09:45:32.438Z,101556.17
2022-09-02T09:48:15.258Z,101558.39
2022-09-02T09:50:45.854Z,101546.23
2022-09-02T09:53:30.347Z,101552.60
2022-09-02T09:56:07.992Z,101549.94
2022-09-02T09:58:39.359Z,101554.04
2022-09-02T10:01:31.650Z,101534.48
2022-09-02T10:04:39.254Z,101537.27
2022-09-02T10:07:01.679Z,101532.08
2022-09-02T10:09:34.316Z,101523.80
2022-09-02T10:12:06.319Z,101523.19
2022-09-02T10:14:46.344Z,101531.49
2022-09-02T10:17:43.539Z,101528.42
2022-09-02T10:20:26.826Z,101528.16
2022-09-02T10:23:06.988Z,101526.34
2022-09-02T10:25:48.208Z,101519.09
2022-09-02T10:28:47.985Z,101519.02
2022-09-02T10:31:51.102Z,101521.73
2022-09-02T10:34:41.082Z,101519.30
2022-09-02T10:37:12.439Z,101516.04
2022-09-02T10:40:12.930Z,101514.73
2022-09-02T10:43:06.894Z,101506.27
2022-09-02T10:45:47.010Z,101505.08
2022-09-02T10:48:37.377Z,101510.13
2022-09-02T10:51:30.191Z,101509.27
2022-09-02T10:54:28.828Z,101509.36
2022-09-02T10:57:20.225Z,101511.54
2022-09-02T10:59:49.465Z,101509.48
2022-09-02T11:02:25.520Z,101504.46
2022-09-02T11:05:04.211Z,101498.29
2022-09-02T11:08:06.803Z,101508.43
2022-09-02T11:10:40.352Z,101503.52
2022-09-02T11:13:19.349Z,101490.79
2022-09-02T11:16:03.112Z,101487.34
2022-09-02T11:18:59.847Z,101484.95
2022-09-02T11:21:50.365Z,101482.23
2022-09-02T11:24:37.995Z,101484.87
2022-09-02T11:27:42.139Z,101489.30
2022-09-02T11:30:24.524Z,101490.04
2022-09-02T11:33:14.594Z,101492.77
2022-09-02T11:35:45.920Z,101489.05
2022-09-02T11:38:32.267Z,101482.25
2022-09-02T11:41:37.518Z,101480.48
2022-09-02T11:44:14.900Z,101477.48
2022-09-02T11:46:52.951Z,101469.61
2022-09-02T11:49:33.861Z,101472.73
2022-09-02T11:52:09.541Z,101468.39
2022-09-02T11:54:43.032Z,101468.60
2022-09-02T11:57:16.095Z,101463.08
2022-09-02T11:59:53.264Z,101467.72
2022-09-02T12:02:43.507Z,101465.36
2022-09-02T12:05:39.953Z,101466.17
2022-09-02T12:08:15.262Z,101460.70
2022-09-02T12:10:50.790Z,101461.03
2022-09-02T12:13:46.160Z,101458.50
2022-09-02T12:16:16.197Z,101455.08
2022-09-02T12:18:49.151Z,101449.98
2022-09-02T12:21:23.390Z,101448.52
2022-09-02T12:23:54.700Z,101442.49
2022-09-02T12:26:25.996Z,101437.88
2022-09-02T12:29:10.973Z,101431.58
2022-09-02T12:31:43.238Z,101436.63
2022-09-02T12:34:20.504Z,101434.55
2022-09-02T12:36:52.604Z,101433.83
2022-09-02T12:39:27.501Z,101435.20
2022-09-02T12:42:12.587Z,101431.61
2022-09-02T12:45:26.850Z,101426.21
2022-09-02T12:48:02.957Z,101428.11
2022-09-02T12:50:52.021Z,101427.55
2022-09-02T12:53:49.368Z,101425.61
2022-09-02T12:56:23.215Z,101425.38
2022-09-02T12:59:00.121Z,101425.22
2022-09-02T13:02:05.154Z,101421.88
2022-09-02T13:04:55.955Z,101419.77
2022-09-02T13:07:51.631Z,101420.64
2022-09-02T13:10:23.603Z,101417.14
2022-09-02T13:13:22.234Z,101426.76
2022-09-02T13:16:04.282Z,101421.78
2022-09-02T13:18:54.169Z,101416.84
2022-09-02T13:21:28.518Z,101420.70
2022-09-02T13:24:14.732Z,101420.05
2022-09-02T13:27:25.203Z,101413.58
2022-09-02T13:30:09.041Z,101410.30
2022-09-02T13:32:39.434Z,101402.89
2022-09-02T13:35:24.109Z,101399.89
2022-09-02T13:38:00.799Z,101398.85
2022-09-02T13:40:34.221Z,101401.56
2022-09-02T13:43:05.119Z,101398.09
2022-09-02T13:45:35.285Z,101391.63
2022-09-02T13:48:09.580Z,101391.84
2022-09-02T13:50:46.901Z,101386.60
2022-09-02T13:53:49.390Z,101378.95
2022-09-02T13:56:27.345Z,101379.63
2022-09-02T13:58:58.532Z,101378.92
2022-09-02T14:01:33.279Z,101377.45
2022-09-02T14:04:09.952Z,101369.12
2022-09-02T14:06:44.285Z,101363.63
2022-09-02T14:09:26.531Z,101363.36
2022-09-02T14:11:55.352Z,101369.86
2022-09-02T14:14:26.949Z,101369.92
2022-09-02T14:17:23.711Z,101365.70
2022-09-02T14:20:09.074Z,101363.09
2022-09-02T14:22:38.080Z,101368.61
2022-09-02T14:25:16.189Z,101363.96
2022-09-02T14:27:53.546Z,101356.45
2022-09-02T14:30:32.879Z,101360.56
2022-09-02T14:33:25.735Z,101355.80
2022-09-02T14:36:12.739Z,101357.31
2022-09-02T14:38:46.957Z,101358.19
2022-09-02T14:41:18.029Z,101358.80
2022-09-02T14:44:00.163Z,101363.76
2022-09-02T14:46:54.581Z,101356.90
2022-09-02T14:49:42.068Z,101358.30
2022-09-02T14:52:46.067Z,101361.95
2022-09-02T14:55:42.296Z,101354.91
2022-09-02T14:58:11.755Z,101357.62
2022-09-02T15:00:40.368Z,101357.21
2022-09-02T15:03:10.307Z,101360.52
2022-09-02T15:05:38.396Z,101359.88
2022-09-02T15:08:07.114Z,101356.29
2022-09-02T15:10:37.193Z,101358.30
2022-09-02T15:13:05.399Z,101355.50
2022-09-02T15:15:34.062Z,101355.91
2022-09-02T15:18:03.487Z,101354.40
2022-09-02T15:20:34.247Z,101353.77
2022-09-02T15:23:03.536Z,101354.30
2022-09-02T15:25:34.720Z,101354.23
2022-09-02T15:28:03.596Z,101348.61
2022-09-02T15:30:36.496Z,101350.48
2022-09-02T15:33:07.457Z,101347.81
2022-09-02T15:35:36.523Z,101344.11
2022-09-02T15:38:06.711Z,101343.23
2022-09-02T15:40:34.895Z,101340.48
2022-09-02T15:43:03.107Z,101339.77
2022-09-02T15:45:31.474Z,101334.82
2022-09-02T15:47:59.995Z,101332.99
2022-09-02T15:50:32.179Z,101332.13
2022-09-02T15:53:00.532Z,101330.21
2022-09-02T15:55:33.002Z,101332.55
2022-09-02T15:58:02.073Z,101337.14
2022-09-02T16:00:34.632Z,101343.27
2022-09-02T16:03:03.560Z,101338.70
2022-09-02T16:05:32.528Z,101341.86
2022-09-02T16:08:02.064Z,101342.73
2022-09-02T16:10:30.124Z,101338.04
2022-09-02T16:13:00.670Z,101343.83
2022-09-02T16:15:30.172Z,101343.69
2022-09-02T16:18:02.806Z,101346.54
2022-09-02T16:20:30.936Z,101343.64
2022-09-02T16:22:58.986Z,101340.79
2022-09-02T16:25:26.976Z,101336.09
2022-09-02T16:27:56.498Z,101332.30
2022-09-02T16:30:26.445Z,101328.52
2022-09-02T16:32:55.501Z,101329.63
2022-09-02T16:35:24.143Z,101330.45
2022-09-02T16:37:53.942Z,101327.60
2022-09-02T16:40:21.980Z,101327.11
2022-09-02T16:42:52.008Z,101327.73
2022-09-02T16:45:21.831Z,101329.23
2022-09-02T16:47:50.227Z,101329.96
2022-09-02T16:50:22.219Z,101328.73
2022-09-02T16:52:52.659Z,101327.58
2022-09-02T16:55:23.241Z,101330.36
2022-09-02T16:57:51.538Z,101328.67
2022-09-02T17:00:24.114Z,101328.23
2022-09-02T17:02:52.361Z,101327.38
2022-09-02T17:05:20.555Z,101330.39
2022-09-02T17:07:48.993Z,101327.44
2022-09-02T17:10:19.520Z,101326.72
2022-09-02T17:12:47.518Z,101327.48
2022-09-02T17:15:15.658Z,101328.46
2022-09-02T17:17:43.825Z,101327.73
2022-09-02T17:20:13.397Z,101329.42
2022-09-02T17:22:42.137Z,101328.41
2022-09-02T17:25:11.055Z,101327.23
2022-09-02T17:27:39.309Z,101331.89
2022-09-02T17:30:08.715Z,101333.50
2022-09-02T17:32:41.172Z,101331.91
2022-09-02T17:35:11.433Z,101333.02
2022-09-02T17:37:40.317Z,101332.14
2022-09-02T17:40:32.502Z,101330.86
2022-09-02T17:43:01.121Z,101331.16
2022-09-02T17:45:30.331Z,101332.39
2022-09-02T17:48:08.861Z,101335.02
2022-09-02T17:50:46.751Z,101337.27
2022-09-02T17:53:14.669Z,101338.75
2022-09-02T17:55:43.064Z,101341.88
2022-09-02T17:58:18.294Z,101342.15
2022-09-02T18:00:50.729Z,101339.73
2022-09-02T18:03:37.848Z,101343.10
2022-09-02T18:06:16.745Z,101348.16
2022-09-02T18:08:58.373Z,101349.98
2022-09-02T18:11:27.305Z,101351.25
2022-09-02T18:14:14.426Z,101351.58
2022-09-02T18:17:12.225Z,101354.30
2022-09-02T18:20:06.960Z,101353.83
2022-09-02T18:23:09.855Z,101354.52
2022-09-02T18:26:03.753Z,101352.66
2022-09-02T18:28:56.914Z,101354.67
2022-09-02T18:31:34.337Z,101354.41
2022-09-02T18:34:38.619Z,101356.69
2022-09-02T18:37:40.338Z,101356.23
2022-09-02T18:40:10.596Z,101358.15
2022-09-02T18:42:53.155Z,101363.87
2022-09-02T18:45:45.947Z,101363.75
2022-09-02T18:48:25.979Z,101366.29
2022-09-02T18:51:00.348Z,101367.53
2022-09-02T18:53:32.922Z,101369.31
2022-09-02T18:56:12.472Z,101367.39
2022-09-02T18:58:55.499Z,101364.02
2022-09-02T19:01:35.501Z,101363.51
2022-09-02T19:04:05.910Z,101359.94
2022-09-02T19:06:36.707Z,101360.09
2022-09-02T19:09:14.169Z,101359.92
2022-09-02T19:11:42.959Z,101362.59
2022-09-02T19:14:31.433Z,101360.66
2022-09-02T19:17:01.340Z,101363.05
2022-09-02T19:19:29.811Z,101365.02
2022-09-02T19:22:14.530Z,101366.02
2022-09-02T19:24:50.022Z,101364.92
2022-09-02T19:27:25.868Z,101369.98
2022-09-02T19:30:08.044Z,101368.21
2022-09-02T19:32:38.812Z,101370.48
2022-09-02T19:35:17.406Z,101365.80
2022-09-02T19:37:51.401Z,101366.92
2022-09-02T19:40:24.852Z,101371.86
2022-09-02T19:42:57.091Z,101374.27
2022-09-02T19:45:29.579Z,101376.30
2022-09-02T19:48:17.003Z,101378.90
2022-09-02T19:50:48.364Z,101379.17
2022-09-02T19:53:31.714Z,101385.28
2022-09-02T19:56:17.185Z,101385.45
2022-09-02T19:58:50.605Z,101385.75
2022-09-02T20:01:25.393Z,101387.23
2022-09-02T20:03:54.338Z,101386.69
2022-09-02T20:06:23.478Z,101389.18
2022-09-02T20:08:53.691Z,101391.33
2022-09-02T20:11:24.173Z,101390.50
2022-09-02T20:13:53.313Z,101394.77
2022-09-02T20:16:24.739Z,101393.21
2022-09-02T20:18:56.079Z,101399.10
2022-09-02T20:21:28.497Z,101399.23
2022-09-02T20:24:07.801Z,101396.71
2022-09-02T20:27:19.004Z,101397.17
2022-09-02T20:30:09.482Z,101397.48
2022-09-02T20:32:51.808Z,101400.04
2022-09-02T20:35:49.876Z,101403.27
2022-09-02T20:38:30.275Z,101405.43
2022-09-02T20:41:24.751Z,101407.33
2022-09-02T20:44:51.876Z,101401.89
2022-09-02T20:47:49.829Z,101410.66
2022-09-02T20:50:28.067Z,101408.52
2022-09-02T20:53:13.730Z,101405.07
2022-09-02T20:55:55.302Z,101405.70
2022-09-02T20:58:51.545Z,101406.20
2022-09-02T21:01:33.432Z,101405.45
2022-09-02T21:04:24.190Z,101405.16
2022-09-02T21:07:01.724Z,101405.89
2022-09-02T21:09:59.310Z,101407.90
2022-09-02T21:12:48.272Z,101406.27
2022-09-02T21:15:30.952Z,101406.89
2022-09-02T21:18:26.915Z,101411.95
2022-09-02T21:21:16.257Z,101412.88
2022-09-02T21:24:17.607Z,101411.34
2022-09-02T21:27:02.722Z,101413.83
2022-09-02T21:29:51.779Z,101411.69
2022-09-02T21:32:29.218Z,101410.99
2022-09-02T21:35:05.777Z,101412.05
2022-09-02T21:37:36.735Z,101416.67
2022-09-02T21:40:11.262Z,101418.47
2022-09-02T21:42:48.433Z,101415.75
2022-09-02T21:45:45.810Z,101413.55
2022-09-02T21:48:39.577Z,101416.48
2022-09-02T21:51:21.253Z,101415.05
2022-09-02T21:54:11.301Z,101413.95
2022-09-02T21:57:14.465Z,101411.02
2022-09-02T22:00:05.514Z,101413.58
2022-09-02T22:03:10.968Z,101416.61
2022-09-02T22:05:56.677Z,101417.62
2022-09-02T22:08:41.236Z,101420.39
2022-09-02T22:11:13.755Z,101425.94
2022-09-02T22:13:42.213Z,101427.68
2022-09-02T22:16:45.878Z,101428.48
2022-09-02T22:19:15.054Z,101426.70
2022-09-02T22:21:53.984Z,101426.73
2022-09-02T22:24:28.589Z,101422.92
2022-09-02T22:27:06.324Z,101420.30
2022-09-02T22:29:54.684Z,101418.73
2022-09-02T22:32:28.029Z,101413.23
2022-09-02T22:35:09.759Z,101408.39
2022-09-02T22:37:55.123Z,101406.06
2022-09-02T22:40:26.145Z,101411.03
2022-09-02T22:43:00.768Z,101412.83
2022-09-02T22:45:57.577Z,101410.81
2022-09-02T22:48:53.554Z,101415.42
2022-09-02T22:51:48.552Z,101415.52
2022-09-02T22:54:17.502Z,101412.70
2022-09-02T22:57:07.857Z,101412.16
2022-09-02T22:59:52.742Z,101407.81
2022-09-02T23:02:30.263Z,101407.42
2022-09-02T23:05:33.009Z,101409.88
2022-09-02T23:08:01.773Z,101414.33
2022-09-02T23:10:29.816Z,101418.14
2022-09-02T23:13:28.285Z,101417.67
2022-09-02T23:16:17.281Z,101416.81
2022-09-02T23:18:56.915Z,101416.87
2022-09-02T23:21:45.327Z,101415.50
2022-09-02T23:24:33.310Z,101414.55
2022-09-02T23:27:09.955Z,101411.79
2022-09-02T23:29:41.747Z,101414.75
2022-09-02T23:32:43.852Z,101422.48
2022-09-02T23:35:35.468Z,101423.79
2022-09-02T23:38:12.016Z,101422.02
2022-09-02T23:40:43.454Z,101420.64
2022-09-02T23:43:18.068Z,101418.21
2022-09-02T23:45:49.141Z,101421.71
2022-09-02T23:48:49.539Z,101420.64
2022-09-02T23:51:39.766Z,101417.48
2022-09-02T23:54:15.773Z,101413.27
2022-09-02T23:57:02.501Z,101414.31
2022-09-02T23:59:42.589Z,101412.55
